Time;durP1;ratioP1;P1;durP2;ratioP2;P2;SDS_P1;SDS_P2;PMS_P1;PMS_P2;Temp;Humidity;BMP_temperature;BMP_pressure;BME280_temperature;BME280_humidity;BME280_pressure;Samples;Min_cycle;Max_cycle;Signal;HPM_P1;HPM_P2
2023/12/23 00:02:06;;;;;;;1.23;1.10;;;;;;;;;;10368918;28;20583;-68
2023/12/23 00:07:07;;;;;;;0.70;0.70;;;;;;;;;;10373627;28;20209;-70
2023/12/23 00:12:08;;;;;;;1.70;0.70;;;;;;;;;;10373912;28;20215;-70
2023/12/23 00:17:08;;;;;;;2.07;0.70;;;;;;;;;;10371151;28;20237;-71
2023/12/23 00:22:09;;;;;;;3.57;0.63;;;;;;;;;;10372942;28;20213;-71
2023/12/23 00:27:09;;;;;;;0.60;0.60;;;;;;;;;;10372673;28;20296;-71
2023/12/23 00:32:09;;;;;;;0.67;0.67;;;;;;;;;;10369388;28;20209;-72
2023/12/23 00:37:09;;;;;;;1.17;0.60;;;;;;;;;;10370758;28;20213;-71
2023/12/23 00:42:10;;;;;;;1.57;0.80;;;;;;;;;;10372240;28;20711;-73
2023/12/23 00:47:10;;;;;;;1.47;1.10;;;;;;;;;;10370683;28;20606;-72
2023/12/23 00:52:10;;;;;;;0.90;0.90;;;;;;;;;;10371635;28;20233;-74
2023/12/23 00:57:11;;;;;;;2.03;0.90;;;;;;;;;;10369483;28;20216;-74
2023/12/23 01:02:11;;;;;;;1.63;1.10;;;;;;;;;;10370224;28;20227;-73
2023/12/23 01:07:11;;;;;;;4.63;1.40;;;;;;;;;;10371136;28;20205;-75
2023/12/23 01:12:12;;;;;;;5.70;1.83;;;;;;;;;;10369753;28;20260;-75
2023/12/23 01:17:12;;;;;;;5.00;1.70;;;;;;;;;;10368512;28;20225;-74
2023/12/23 01:22:12;;;;;;;9.27;1.40;;;;;;;;;;10370389;28;20216;-74
2023/12/23 01:27:12;;;;;;;1.60;1.13;;;;;;;;;;10370610;28;20196;-74
2023/12/23 01:32:12;;;;;;;1.30;1.17;;;;;;;;;;10370219;28;20630;-76
2023/12/23 01:37:13;;;;;;;6.47;1.30;;;;;;;;;;10369807;28;20213;-76
2023/12/23 01:42:13;;;;;;;3.97;1.00;;;;;;;;;;10371206;28;20226;-78
2023/12/23 01:47:14;;;;;;;2.50;1.10;;;;;;;;;;10372407;28;20189;-77
2023/12/23 01:52:15;;;;;;;6.33;1.20;;;;;;;;;;10366106;28;20248;-77
2023/12/23 01:57:16;;;;;;;8.37;1.40;;;;;;;;;;10369265;28;20630;-77
2023/12/23 02:02:17;;;;;;;5.40;1.17;;;;;;;;;;10368799;28;20208;-75
2023/12/23 02:07:17;;;;;;;2.40;1.10;;;;;;;;;;10367411;28;20205;-75
2023/12/23 02:12:34;;;;;;;6.80;1.33;;;;;;;;;;10367057;28;20579;-74
2023/12/23 02:17:34;;;;;;;7.50;1.20;;;;;;;;;;10366920;28;20589;-74
2023/12/23 02:22:35;;;;;;;9.00;1.50;;;;;;;;;;10367224;28;20194;-73
2023/12/23 02:27:45;;;;;;;5.90;1.63;;;;;;;;;;10367840;28;20523;-71
2023/12/23 02:32:45;;;;;;;14.93;1.93;;;;;;;;;;10365802;28;20189;-72
2023/12/23 02:37:46;;;;;;;11.18;1.90;;;;;;;;;;10367827;28;20217;-71
2023/12/23 02:42:46;;;;;;;8.83;1.70;;;;;;;;;;10367980;28;20178;-72
2023/12/23 02:47:48;;;;;;;10.23;1.80;;;;;;;;;;10367638;28;20231;-71
2023/12/23 02:52:48;;;;;;;7.50;1.63;;;;;;;;;;10364438;28;20189;-71
2023/12/23 02:57:48;;;;;;;4.30;1.27;;;;;;;;;;10367719;28;20220;-70
2023/12/23 03:02:49;;;;;;;4.43;1.20;;;;;;;;;;10366309;28;20586;-70
2023/12/23 03:07:49;;;;;;;5.13;1.33;;;;;;;;;;10363031;28;20336;-70
2023/12/23 03:12:49;;;;;;;5.70;1.53;;;;;;;;;;10367433;28;20284;-70
2023/12/23 03:17:49;;;;;;;4.00;1.40;;;;;;;;;;10367022;28;20221;-68
2023/12/23 03:22:50;;;;;;;6.43;1.30;;;;;;;;;;10367254;28;20220;-67
2023/12/23 03:27:51;;;;;;;9.55;1.77;;;;;;;;;;10363180;28;20687;-66
2023/12/23 03:32:51;;;;;;;8.30;1.40;;;;;;;;;;10367007;28;20276;-66
2023/12/23 03:37:51;;;;;;;10.53;1.90;;;;;;;;;;10369606;28;20695;-65
2023/12/23 03:42:51;;;;;;;6.40;1.70;;;;;;;;;;10374473;28;20255;-66
2023/12/23 03:47:54;;;;;;;4.33;1.40;;;;;;;;;;10368671;28;20237;-65
2023/12/23 03:52:54;;;;;;;7.70;1.50;;;;;;;;;;10373929;28;20181;-65
2023/12/23 03:57:54;;;;;;;5.13;1.57;;;;;;;;;;10373404;28;21044;-66
2023/12/23 04:02:54;;;;;;;8.87;2.07;;;;;;;;;;10373889;28;20644;-65
2023/12/23 04:07:55;;;;;;;13.20;1.80;;;;;;;;;;10369586;28;20413;-65
2023/12/23 04:12:55;;;;;;;8.57;1.50;;;;;;;;;;10372198;28;20189;-65
2023/12/23 04:17:55;;;;;;;12.27;1.67;;;;;;;;;;10371945;28;20217;-65
2023/12/23 04:22:55;;;;;;;5.43;1.47;;;;;;;;;;10372976;28;20197;-66
2023/12/23 04:27:56;;;;;;;9.30;1.43;;;;;;;;;;10367859;28;20348;-65
2023/12/23 04:32:56;;;;;;;5.43;1.20;;;;;;;;;;10371235;28;20675;-66
2023/12/23 04:37:56;;;;;;;8.73;1.77;;;;;;;;;;10371212;28;20209;-66
2023/12/23 04:42:57;;;;;;;6.03;1.33;;;;;;;;;;10368460;28;20427;-65
2023/12/23 04:47:57;;;;;;;8.48;1.40;;;;;;;;;;10371340;28;20320;-65
2023/12/23 04:52:58;;;;;;;7.68;1.80;;;;;;;;;;10370867;28;20189;-66
2023/12/23 04:58:00;;;;;;;4.57;2.30;;;;;;;;;;10369822;28;20218;-65
2023/12/23 05:03:00;;;;;;;8.03;1.60;;;;;;;;;;10366658;28;20174;-66
2023/12/23 05:08:02;;;;;;;13.07;2.10;;;;;;;;;;10369803;28;21120;-65
2023/12/23 05:13:03;;;;;;;3.90;1.43;;;;;;;;;;10371408;28;20217;-66
2023/12/23 05:18:03;;;;;;;9.00;1.97;;;;;;;;;;10370102;28;20225;-65
2023/12/23 05:23:03;;;;;;;7.57;1.40;;;;;;;;;;10366890;28;20618;-65
2023/12/23 05:28:03;;;;;;;9.00;1.70;;;;;;;;;;10369375;28;20213;-66
2023/12/23 05:33:04;;;;;;;8.33;1.60;;;;;;;;;;10369747;28;20744;-65
2023/12/23 05:38:05;;;;;;;13.43;1.90;;;;;;;;;;10371310;28;20225;-65
2023/12/23 05:43:05;;;;;;;11.67;1.67;;;;;;;;;;10365984;28;20208;-65
2023/12/23 05:48:05;;;;;;;9.43;2.57;;;;;;;;;;10369394;28;20241;-66
2023/12/23 05:53:06;;;;;;;8.47;2.10;;;;;;;;;;10369543;28;20197;-66
2023/12/23 05:58:06;;;;;;;6.13;1.70;;;;;;;;;;10367283;28;20292;-65
2023/12/23 06:03:06;;;;;;;5.03;1.40;;;;;;;;;;10365620;28;20193;-66
2023/12/23 06:08:06;;;;;;;6.80;1.87;;;;;;;;;;10368505;28;20279;-66
2023/12/23 06:13:06;;;;;;;7.13;1.50;;;;;;;;;;10369098;28;20193;-66
2023/12/23 06:18:07;;;;;;;5.23;1.50;;;;;;;;;;10364932;28;20564;-66
2023/12/23 06:23:07;;;;;;;7.20;1.67;;;;;;;;;;10368671;28;20189;-66
2023/12/23 06:28:07;;;;;;;11.10;2.00;;;;;;;;;;10368190;28;20217;-66
2023/12/23 06:33:07;;;;;;;2.90;1.50;;;;;;;;;;10368541;28;20655;-65
2023/12/23 06:38:07;;;;;;;8.03;2.30;;;;;;;;;;10364219;28;20213;-65
2023/12/23 06:43:08;;;;;;;6.70;2.43;;;;;;;;;;10368195;28;20190;-65
2023/12/23 06:48:08;;;;;;;8.47;2.00;;;;;;;;;;10367770;28;20224;-66
2023/12/23 06:53:08;;;;;;;9.10;1.83;;;;;;;;;;10368014;28;20239;-66
2023/12/23 06:58:09;;;;;;;4.00;1.50;;;;;;;;;;10360219;28;20205;-65
2023/12/23 07:03:09;;;;;;;6.57;1.80;;;;;;;;;;10367468;28;20189;-64
2023/12/23 07:08:09;;;;;;;2.77;2.00;;;;;;;;;;10367579;28;20224;-65
2023/12/23 07:13:09;;;;;;;6.93;2.23;;;;;;;;;;10371413;28;20196;-65
2023/12/23 07:18:10;;;;;;;4.13;1.40;;;;;;;;;;10369726;28;20613;-65
2023/12/23 07:23:10;;;;;;;6.73;1.63;;;;;;;;;;10375687;28;20268;-67
2023/12/23 07:28:11;;;;;;;8.67;2.67;;;;;;;;;;10374851;28;20738;-66
2023/12/23 07:33:12;;;;;;;4.10;2.00;;;;;;;;;;10373419;28;20197;-66
2023/12/23 07:38:12;;;;;;;10.17;2.33;;;;;;;;;;10371145;28;20208;-66
2023/12/23 07:43:13;;;;;;;3.65;2.13;;;;;;;;;;10374880;28;20201;-67
2023/12/23 07:48:15;;;;;;;5.43;2.23;;;;;;;;;;10373796;28;20221;-67
2023/12/23 07:53:15;;;;;;;5.17;2.10;;;;;;;;;;10365124;28;20181;-68
2023/12/23 07:58:15;;;;;;;5.47;2.07;;;;;;;;;;10370496;28;20522;-68
2023/12/23 08:03:16;;;;;;;3.27;2.00;;;;;;;;;;10359948;28;20281;-66
2023/12/23 08:08:16;;;;;;;5.80;2.40;;;;;;;;;;10367485;28;20223;-67
2023/12/23 08:13:17;;;;;;;6.63;2.63;;;;;;;;;;10366305;28;20192;-66
2023/12/23 08:18:17;;;;;;;5.43;3.40;;;;;;;;;;10366663;28;20240;-68
2023/12/23 08:23:18;;;;;;;10.10;6.23;;;;;;;;;;10363081;28;20296;-66
2023/12/23 08:28:18;;;;;;;3.73;2.30;;;;;;;;;;10370542;28;20216;-67
2023/12/23 08:33:18;;;;;;;3.60;1.20;;;;;;;;;;10367482;28;20208;-66
2023/12/23 08:38:18;;;;;;;1.33;1.23;;;;;;;;;;10361304;28;20216;-68
2023/12/23 08:43:18;;;;;;;1.50;1.40;;;;;;;;;;10367329;28;20264;-66
2023/12/23 08:48:18;;;;;;;23.37;11.97;;;;;;;;;;10366989;28;20236;-66
2023/12/23 08:53:19;;;;;;;6.57;4.23;;;;;;;;;;10368271;28;20307;-67
2023/12/23 08:58:19;;;;;;;2.28;1.67;;;;;;;;;;10361995;28;20205;-67
2023/12/23 09:03:19;;;;;;;1.50;1.40;;;;;;;;;;10368937;28;20247;-67
2023/12/23 09:08:19;;;;;;;1.10;1.10;;;;;;;;;;10360176;28;20574;-67
2023/12/23 09:13:19;;;;;;;2.73;1.30;;;;;;;;;;10367219;28;20659;-67
2023/12/23 09:18:20;;;;;;;1.27;1.17;;;;;;;;;;10369068;28;20549;-68
2023/12/23 09:23:20;;;;;;;1.23;1.10;;;;;;;;;;10369106;28;20284;-68
2023/12/23 09:28:20;;;;;;;1.00;1.00;;;;;;;;;;10364499;28;20221;-69
2023/12/23 09:33:20;;;;;;;0.97;0.97;;;;;;;;;;10366731;28;20184;-70
2023/12/23 09:38:20;;;;;;;0.80;0.80;;;;;;;;;;10363379;28;20213;-69
2023/12/23 09:43:21;;;;;;;0.80;0.80;;;;;;;;;;10365837;28;20193;-69
2023/12/23 09:48:21;;;;;;;1.10;1.10;;;;;;;;;;10364039;28;20240;-65
2023/12/23 09:53:22;;;;;;;1.30;1.20;;;;;;;;;;10367725;28;20631;-65
2023/12/23 09:58:22;;;;;;;1.30;1.20;;;;;;;;;;10364576;28;20909;-66
2023/12/23 10:03:22;;;;;;;1.23;1.00;;;;;;;;;;10367718;28;20307;-64
2023/12/23 10:08:22;;;;;;;0.97;0.97;;;;;;;;;;10362836;28;20972;-63
2023/12/23 10:13:23;;;;;;;1.00;1.00;;;;;;;;;;10349009;28;20186;-67
2023/12/23 10:18:24;;;;;;;2.03;1.33;;;;;;;;;;10361399;28;20214;-65
2023/12/23 10:23:24;;;;;;;5.43;4.20;;;;;;;;;;10366292;28;20188;-64
2023/12/23 10:28:25;;;;;;;0.93;0.93;;;;;;;;;;10361779;28;20224;-64
2023/12/23 10:33:26;;;;;;;1.10;1.10;;;;;;;;;;10362807;28;20227;-63
2023/12/23 10:38:27;;;;;;;1.30;1.20;;;;;;;;;;10365755;28;20213;-64
2023/12/23 10:43:27;;;;;;;1.00;1.00;;;;;;;;;;10356024;28;20676;-64
2023/12/23 10:48:28;;;;;;;0.90;0.90;;;;;;;;;;10363150;28;20241;-63
2023/12/23 10:53:29;;;;;;;1.10;1.10;;;;;;;;;;10364924;28;20502;-61
2023/12/23 10:58:29;;;;;;;1.00;1.00;;;;;;;;;;10364602;28;20310;-63
2023/12/23 11:03:30;;;;;;;1.30;1.20;;;;;;;;;;10361262;28;20185;-64
2023/12/23 11:08:32;;;;;;;1.43;1.33;;;;;;;;;;10363432;28;20264;-63
2023/12/23 11:13:32;;;;;;;1.07;1.07;;;;;;;;;;10366069;28;20982;-64
2023/12/23 11:18:32;;;;;;;5.57;1.60;;;;;;;;;;10364276;28;20205;-64
2023/12/23 11:23:33;;;;;;;1.20;1.20;;;;;;;;;;10363723;28;20247;-66
2023/12/23 11:28:35;;;;;;;0.97;0.97;;;;;;;;;;10365402;28;20862;-66
2023/12/23 11:33:36;;;;;;;0.80;0.80;;;;;;;;;;10365507;28;20574;-67
2023/12/23 11:38:50;;;;;;;1.90;0.80;;;;;;;;;;10363275;28;20217;-68
2023/12/23 11:43:52;;;;;;;0.80;0.80;;;;;;;;;;10355938;28;20251;-68
2023/12/23 11:48:52;;;;;;;2.10;1.90;;;;;;;;;;10357292;28;20662;-71
2023/12/23 11:53:53;;;;;;;1.07;1.03;;;;;;;;;;10362658;28;20181;-66
2023/12/23 11:58:53;;;;;;;0.90;0.90;;;;;;;;;;10366050;28;20216;-66
2023/12/23 12:03:53;;;;;;;2.27;1.00;;;;;;;;;;10365768;28;20205;-69
2023/12/23 12:08:55;;;;;;;2.17;1.20;;;;;;;;;;10366839;28;20488;-66
2023/12/23 12:13:56;;;;;;;2.60;1.70;;;;;;;;;;10364663;28;20197;-67
2023/12/23 12:18:56;;;;;;;1.20;1.20;;;;;;;;;;10366436;28;20255;-67
2023/12/23 12:23:59;;;;;;;1.00;1.00;;;;;;;;;;10370725;28;20676;-67
2023/12/23 12:28:59;;;;;;;0.90;0.90;;;;;;;;;;10371733;28;20220;-67
2023/12/23 12:33:59;;;;;;;1.00;1.00;;;;;;;;;;10371701;28;20228;-67
2023/12/23 12:38:59;;;;;;;1.33;1.00;;;;;;;;;;10366582;28;20224;-68
2023/12/23 12:43:59;;;;;;;0.70;0.70;;;;;;;;;;10371500;28;20191;-68
2023/12/23 12:49:00;;;;;;;0.80;0.80;;;;;;;;;;10370924;28;20746;-67
2023/12/23 12:54:00;;;;;;;1.63;1.53;;;;;;;;;;10371407;28;20200;-66
2023/12/23 12:59:00;;;;;;;1.00;1.00;;;;;;;;;;10365417;28;20209;-66
2023/12/23 13:04:00;;;;;;;0.90;0.90;;;;;;;;;;10370846;28;20201;-67
2023/12/23 13:09:03;;;;;;;1.53;1.43;;;;;;;;;;10366429;28;20220;-66
2023/12/23 13:14:04;;;;;;;1.30;1.30;;;;;;;;;;10364667;28;20574;-66
2023/12/23 13:19:04;;;;;;;1.67;1.57;;;;;;;;;;10365660;28;20219;-67
2023/12/23 13:24:05;;;;;;;1.23;1.13;;;;;;;;;;10367787;28;20194;-67
2023/12/23 13:29:05;;;;;;;1.13;1.13;;;;;;;;;;10362107;28;20323;-67
2023/12/23 13:34:05;;;;;;;1.40;1.30;;;;;;;;;;10368305;28;20182;-66
2023/12/23 13:39:10;;;;;;;1.67;1.50;;;;;;;;;;10368776;28;20297;-67
2023/12/23 13:44:10;;;;;;;2.53;2.33;;;;;;;;;;10358968;28;20204;-67
2023/12/23 13:49:10;;;;;;;1.17;1.00;;;;;;;;;;10362332;28;20258;-67
2023/12/23 13:54:10;;;;;;;1.67;1.57;;;;;;;;;;10366937;28;21037;-67
2023/12/23 13:59:10;;;;;;;1.13;1.10;;;;;;;;;;10363912;28;20634;-66
2023/12/23 14:04:11;;;;;;;1.00;1.00;;;;;;;;;;10368144;28;20199;-66
2023/12/23 14:09:11;;;;;;;1.90;1.40;;;;;;;;;;10367775;28;20221;-66
2023/12/23 14:14:11;;;;;;;0.87;0.87;;;;;;;;;;10367923;28;20194;-66
2023/12/23 14:19:11;;;;;;;1.43;1.30;;;;;;;;;;10367004;28;20305;-66
2023/12/23 14:24:11;;;;;;;1.73;1.63;;;;;;;;;;10367881;28;20196;-67
2023/12/23 14:29:12;;;;;;;1.33;1.23;;;;;;;;;;10367378;28;20217;-68
2023/12/23 14:34:12;;;;;;;0.90;0.90;;;;;;;;;;10367852;28;20451;-67
2023/12/23 14:39:13;;;;;;;2.23;1.10;;;;;;;;;;10365067;28;20466;-67
2023/12/23 14:44:14;;;;;;;1.00;1.00;;;;;;;;;;10360642;28;20192;-67
2023/12/23 14:49:15;;;;;;;1.40;1.30;;;;;;;;;;10360906;28;20248;-66
2023/12/23 14:54:15;;;;;;;1.97;1.87;;;;;;;;;;10361198;28;20189;-67
2023/12/23 14:59:15;;;;;;;1.73;1.63;;;;;;;;;;10366215;28;20209;-67
2023/12/23 15:04:15;;;;;;;1.70;1.60;;;;;;;;;;10366024;28;20189;-66
2023/12/23 15:09:16;;;;;;;1.40;1.30;;;;;;;;;;10366669;28;20770;-66
2023/12/23 15:14:16;;;;;;;1.10;1.00;;;;;;;;;;10365726;28;20217;-66
2023/12/23 15:19:16;;;;;;;3.53;0.93;;;;;;;;;;10366457;28;20267;-66
2023/12/23 15:24:16;;;;;;;1.10;1.10;;;;;;;;;;10366696;28;20213;-66
2023/12/23 15:29:17;;;;;;;1.00;1.00;;;;;;;;;;10366087;28;20267;-66
2023/12/23 15:34:18;;;;;;;1.30;1.20;;;;;;;;;;10370092;28;20288;-66
2023/12/23 15:39:18;;;;;;;1.10;1.10;;;;;;;;;;10368173;28;20656;-66
2023/12/23 15:44:18;;;;;;;1.10;1.10;;;;;;;;;;10370772;28;20668;-66
2023/12/23 15:49:18;;;;;;;1.00;1.00;;;;;;;;;;10368733;28;20255;-66
2023/12/23 15:54:18;;;;;;;1.20;1.20;;;;;;;;;;10362078;28;20189;-66
2023/12/23 15:59:18;;;;;;;7.47;5.83;;;;;;;;;;10372224;28;20221;-66
2023/12/23 16:04:19;;;;;;;2.40;2.20;;;;;;;;;;10363374;28;20194;-67
2023/12/23 16:09:19;;;;;;;3.47;3.13;;;;;;;;;;10367698;28;20213;-67
2023/12/23 16:14:19;;;;;;;5.10;4.60;;;;;;;;;;10367847;28;20690;-67
2023/12/23 16:19:19;;;;;;;5.27;4.70;;;;;;;;;;10369489;28;20465;-68
2023/12/23 16:24:19;;;;;;;2.93;2.73;;;;;;;;;;10365726;28;20197;-68
2023/12/23 16:29:20;;;;;;;6.70;4.77;;;;;;;;;;10367567;28;20295;-69
2023/12/23 16:34:20;;;;;;;3.93;2.60;;;;;;;;;;10370670;28;20181;-69
2023/12/23 16:39:20;;;;;;;15.43;5.03;;;;;;;;;;10371644;28;20202;-69
2023/12/23 16:44:21;;;;;;;16.03;8.53;;;;;;;;;;10371385;28;20198;-70
2023/12/23 16:49:21;;;;;;;4.27;3.60;;;;;;;;;;10371607;28;20263;-70
2023/12/23 16:54:21;;;;;;;1.77;1.47;;;;;;;;;;10361965;28;20244;-71
2023/12/23 16:59:22;;;;;;;4.70;3.63;;;;;;;;;;10356980;28;20205;-71
2023/12/23 17:04:22;;;;;;;7.13;4.20;;;;;;;;;;10357352;28;20184;-71
2023/12/23 17:09:22;;;;;;;7.23;4.97;;;;;;;;;;10356558;28;20741;-69
2023/12/23 17:14:22;;;;;;;3.83;3.03;;;;;;;;;;10364353;28;20449;-70
2023/12/23 17:19:22;;;;;;;2.70;2.50;;;;;;;;;;10370820;28;20300;-71
2023/12/23 17:24:23;;;;;;;2.50;2.23;;;;;;;;;;10369345;28;20220;-71
2023/12/23 17:29:23;;;;;;;2.10;1.90;;;;;;;;;;10369243;28;20212;-70
2023/12/23 17:34:23;;;;;;;4.87;3.70;;;;;;;;;;10369225;28;20200;-70
2023/12/23 17:39:23;;;;;;;2.63;2.43;;;;;;;;;;10365801;28;20213;-70
2023/12/23 17:44:23;;;;;;;4.63;3.70;;;;;;;;;;10367785;28;20714;-70
2023/12/23 17:49:24;;;;;;;1.80;1.70;;;;;;;;;;10369469;28;20649;-70
2023/12/23 17:54:24;;;;;;;3.47;2.63;;;;;;;;;;10367427;28;20193;-69
2023/12/23 17:59:25;;;;;;;4.60;1.93;;;;;;;;;;10369390;28;20614;-69
2023/12/23 18:04:27;;;;;;;2.07;1.80;;;;;;;;;;10368785;28;20190;-69
2023/12/23 18:09:27;;;;;;;1.40;0.97;;;;;;;;;;10361048;28;20250;-69
2023/12/23 18:14:28;;;;;;;1.70;1.60;;;;;;;;;;10366041;28;20269;-68
2023/12/23 18:19:28;;;;;;;4.47;2.53;;;;;;;;;;10368434;28;20217;-67
2023/12/23 18:24:28;;;;;;;7.60;3.17;;;;;;;;;;10366075;28;20217;-66
2023/12/23 18:29:28;;;;;;;3.40;3.03;;;;;;;;;;10367575;28;20228;-66
2023/12/23 18:34:31;;;;;;;4.73;2.00;;;;;;;;;;10368109;28;20575;-66
2023/12/23 18:39:31;;;;;;;5.73;4.53;;;;;;;;;;10367604;28;20247;-65
2023/12/23 18:44:31;;;;;;;2.87;2.67;;;;;;;;;;10366015;28;20193;-66
2023/12/23 18:49:31;;;;;;;3.30;3.00;;;;;;;;;;10366652;28;20225;-65
2023/12/23 18:54:31;;;;;;;2.03;1.87;;;;;;;;;;10367523;28;20666;-66
2023/12/23 18:59:31;;;;;;;1.93;1.83;;;;;;;;;;10367564;28;20633;-67
2023/12/23 19:04:32;;;;;;;2.20;2.10;;;;;;;;;;10365575;28;20189;-67
2023/12/23 19:09:32;;;;;;;3.97;3.57;;;;;;;;;;10374491;28;20219;-66
2023/12/23 19:14:32;;;;;;;5.27;3.33;;;;;;;;;;10375446;28;20734;-67
2023/12/23 19:19:32;;;;;;;4.23;3.23;;;;;;;;;;10373421;28;20263;-67
2023/12/23 19:24:32;;;;;;;7.00;5.03;;;;;;;;;;10367801;28;20277;-68
2023/12/23 19:29:35;;;;;;;2.77;1.93;;;;;;;;;;10372622;28;20250;-69
2023/12/23 19:34:35;;;;;;;2.17;2.03;;;;;;;;;;10372182;28;20198;-70
2023/12/23 19:39:37;;;;;;;3.57;2.80;;;;;;;;;;10369613;28;20300;-69
2023/12/23 19:44:37;;;;;;;4.00;3.60;;;;;;;;;;10370800;28;20216;-69
2023/12/23 19:49:38;;;;;;;3.10;2.80;;;;;;;;;;10373872;28;20247;-69
2023/12/23 19:54:38;;;;;;;4.27;3.10;;;;;;;;;;10371996;28;20221;-68
2023/12/23 19:59:38;;;;;;;15.50;7.40;;;;;;;;;;10373780;28;20210;-68
2023/12/23 20:04:38;;;;;;;3.50;2.93;;;;;;;;;;10373450;28;20196;-69
2023/12/23 20:09:38;;;;;;;6.63;4.13;;;;;;;;;;10373355;28;20232;-69
2023/12/23 20:14:39;;;;;;;1.67;1.57;;;;;;;;;;10385521;28;20216;-68
2023/12/23 20:19:39;;;;;;;2.10;1.90;;;;;;;;;;10371908;28;20216;-66
2023/12/23 20:24:39;;;;;;;1.80;1.70;;;;;;;;;;10372883;28;20280;-66
2023/12/23 20:29:39;;;;;;;2.43;2.10;;;;;;;;;;10372525;28;20270;-67
2023/12/23 20:34:39;;;;;;;1.40;1.30;;;;;;;;;;10372377;28;20224;-67
2023/12/23 20:39:40;;;;;;;4.50;4.10;;;;;;;;;;10372241;28;20221;-67
2023/12/23 20:44:40;;;;;;;1.10;1.10;;;;;;;;;;10371912;28;20568;-67
2023/12/23 20:49:40;;;;;;;1.30;1.20;;;;;;;;;;10371549;28;20521;-67
2023/12/23 20:54:40;;;;;;;3.77;3.40;;;;;;;;;;10371618;28;20217;-68
2023/12/23 20:59:44;;;;;;;1.67;1.57;;;;;;;;;;10371155;28;20217;-67
2023/12/23 21:04:44;;;;;;;4.63;3.00;;;;;;;;;;10371331;28;20250;-67
2023/12/23 21:09:44;;;;;;;2.73;1.90;;;;;;;;;;10370565;28;20228;-70
2023/12/23 21:14:44;;;;;;;2.20;2.00;;;;;;;;;;10370445;28;20198;-69
2023/12/23 21:19:45;;;;;;;3.30;2.97;;;;;;;;;;10371096;28;20308;-69
2023/12/23 21:24:45;;;;;;;3.00;2.63;;;;;;;;;;10370205;28;20204;-69
2023/12/23 21:29:46;;;;;;;3.40;2.73;;;;;;;;;;10370138;28;20209;-67
2023/12/23 21:34:46;;;;;;;5.25;2.90;;;;;;;;;;10368909;28;20190;-67
2023/12/23 21:39:46;;;;;;;3.07;2.40;;;;;;;;;;10369872;28;20213;-68
2023/12/23 21:44:46;;;;;;;3.73;2.63;;;;;;;;;;10369737;28;20221;-69
2023/12/23 21:49:46;;;;;;;3.23;2.50;;;;;;;;;;10369450;28;20233;-69
2023/12/23 21:54:47;;;;;;;3.30;2.47;;;;;;;;;;10369682;28;20190;-69
2023/12/23 21:59:47;;;;;;;2.37;2.17;;;;;;;;;;10368988;28;20259;-70
2023/12/23 22:04:47;;;;;;;2.80;2.33;;;;;;;;;;10369097;28;20212;-70
2023/12/23 22:09:47;;;;;;;4.63;3.10;;;;;;;;;;10368736;28;20298;-69
2023/12/23 22:14:52;;;;;;;12.27;6.23;;;;;;;;;;10368952;28;20667;-70
2023/12/23 22:19:52;;;;;;;14.10;6.57;;;;;;;;;;10365966;28;20730;-69
2023/12/23 22:24:52;;;;;;;6.43;3.43;;;;;;;;;;10367433;28;20201;-68
2023/12/23 22:29:52;;;;;;;3.50;3.00;;;;;;;;;;10367536;28;20537;-68
2023/12/23 22:34:53;;;;;;;3.53;2.93;;;;;;;;;;10367636;28;20209;-67
2023/12/23 22:39:53;;;;;;;2.40;2.20;;;;;;;;;;10368138;28;20351;-66
2023/12/23 22:44:53;;;;;;;4.47;2.37;;;;;;;;;;10367837;28;20189;-67
2023/12/23 22:49:53;;;;;;;2.90;2.70;;;;;;;;;;10367684;28;20496;-66
2023/12/23 22:54:54;;;;;;;1.80;1.70;;;;;;;;;;10367994;28;20212;-66
2023/12/23 22:59:54;;;;;;;1.50;1.40;;;;;;;;;;10368041;28;20220;-67
2023/12/23 23:04:54;;;;;;;1.47;1.37;;;;;;;;;;10367762;28;20208;-66
2023/12/23 23:09:54;;;;;;;1.00;1.00;;;;;;;;;;10367586;28;20234;-65
2023/12/23 23:14:55;;;;;;;1.93;1.20;;;;;;;;;;10367389;28;20204;-65
2023/12/23 23:19:55;;;;;;;1.00;1.00;;;;;;;;;;10367466;28;20217;-66
2023/12/23 23:24:55;;;;;;;1.27;1.17;;;;;;;;;;10367418;28;20867;-65
2023/12/23 23:29:55;;;;;;;0.90;0.90;;;;;;;;;;10367192;28;20355;-67
2023/12/23 23:34:55;;;;;;;0.90;0.90;;;;;;;;;;10367345;28;20223;-67
2023/12/23 23:39:56;;;;;;;1.00;1.00;;;;;;;;;;10366850;28;20215;-67
2023/12/23 23:44:56;;;;;;;1.07;1.07;;;;;;;;;;10367107;28;20201;-66
2023/12/23 23:49:56;;;;;;;1.00;1.00;;;;;;;;;;10366713;28;20249;-68
2023/12/23 23:54:57;;;;;;;1.30;1.20;;;;;;;;;;10372520;28;20563;-68
2023/12/23 23:59:57;;;;;;;1.07;1.07;;;;;;;;;;10374328;28;20213;-68
